Time;durP1;ratioP1;P1;durP2;ratioP2;P2;SDS_P1;SDS_P2;PMS_P1;PMS_P2;Temp;Humidity;BMP_temperature;BMP_pressure;BME280_temperature;BME280_humidity;BME280_pressure;Samples;Min_cycle;Max_cycle;Signal;HPM_P1;HPM_P2
2021/03/24 00:00:23;;;;;;;22.98;10.65;;;;;;;9.54;62.94;100687.69;1772666;80;21163;-77
2021/03/24 00:02:49;;;;;;;21.65;10.65;;;;;;;9.43;63.31;100680.73;1777439;80;21252;-76
2021/03/24 00:05:16;;;;;;;19.87;9.95;;;;;;;9.46;63.14;100675.19;1767617;78;26963;-76
2021/03/24 00:07:42;;;;;;;26.00;11.08;;;;;;;9.32;63.59;100683.00;1772781;79;22041;-75
2021/03/24 00:10:10;;;;;;;23.25;11.25;;;;;;;9.29;63.71;100686.36;1773609;79;21200;-75
2021/03/24 00:12:36;;;;;;;25.68;11.70;;;;;;;9.33;63.51;100682.00;1774578;80;21196;-74
2021/03/24 00:15:11;;;;;;;21.97;11.40;;;;;;;9.31;63.54;100685.27;1770385;80;21149;-75
2021/03/24 00:17:36;;;;;;;25.15;11.68;;;;;;;9.25;63.76;100688.44;1773298;80;21731;-74
2021/03/24 00:20:05;;;;;;;22.80;11.78;;;;;;;9.36;63.48;100688.00;1766780;80;22374;-73
2021/03/24 00:22:31;;;;;;;23.18;10.85;;;;;;;9.29;63.66;100687.68;1771333;80;21607;-74
2021/03/24 00:24:57;;;;;;;25.70;11.80;;;;;;;9.23;63.90;100690.85;1768949;80;25934;-73
2021/03/24 00:27:23;;;;;;;23.62;11.55;;;;;;;9.28;63.72;100696.08;1769170;80;28428;-73
2021/03/24 00:29:48;;;;;;;27.30;11.97;;;;;;;9.28;63.65;100696.08;1774532;79;24334;-74
2021/03/24 00:32:14;;;;;;;24.05;11.85;;;;;;;9.29;63.68;100692.48;1771949;79;21860;-73
2021/03/24 00:34:40;;;;;;;22.87;11.12;;;;;;;9.20;64.01;100690.66;1765298;80;27019;-74
2021/03/24 00:37:06;;;;;;;28.50;12.53;;;;;;;9.13;64.40;100694.78;1767594;80;21134;-74
2021/03/24 00:39:32;;;;;;;25.70;11.15;;;;;;;9.21;64.28;100695.44;1769574;80;28285;-75
2021/03/24 00:41:57;;;;;;;25.05;12.37;;;;;;;9.29;64.03;100697.76;1774788;79;26691;-74
2021/03/24 00:44:23;;;;;;;24.10;11.90;;;;;;;9.25;64.12;100700.30;1772547;80;21956;-74
2021/03/24 00:46:49;;;;;;;26.02;12.20;;;;;;;9.27;64.15;100697.03;1779249;79;27424;-73
2021/03/24 00:49:15;;;;;;;21.05;11.60;;;;;;;9.28;63.80;100694.77;1775653;79;21525;-75
2021/03/24 00:51:41;;;;;;;28.10;12.15;;;;;;;9.26;63.80;100694.53;1781903;79;28382;-77
2021/03/24 00:54:07;;;;;;;28.87;12.43;;;;;;;9.24;63.91;100696.48;1775770;79;26677;-76
2021/03/24 00:56:33;;;;;;;23.55;12.25;;;;;;;9.22;63.92;100699.75;1776033;79;22604;-76
2021/03/24 00:58:58;;;;;;;25.05;11.57;;;;;;;9.18;64.05;100695.70;1781536;79;27139;-76
2021/03/24 01:01:24;;;;;;;25.60;12.18;;;;;;;9.18;64.16;100692.57;1776444;79;25352;-76
2021/03/24 01:03:50;;;;;;;23.80;11.05;;;;;;;9.12;64.37;100690.47;1775891;79;28484;-76
2021/03/24 01:06:16;;;;;;;23.67;11.88;;;;;;;9.12;64.47;100699.69;1779754;79;26752;-76
2021/03/24 01:08:41;;;;;;;21.25;11.50;;;;;;;9.08;64.52;100699.62;1781810;79;21514;-76
2021/03/24 01:11:07;;;;;;;24.80;12.35;;;;;;;9.07;64.61;100695.31;1777777;79;27066;-75
2021/03/24 01:13:35;;;;;;;25.43;12.73;;;;;;;9.08;64.55;100697.81;1783684;79;25871;-75
2021/03/24 01:16:01;;;;;;;25.32;11.68;;;;;;;9.07;64.51;100704.04;1780312;79;21176;-76
2021/03/24 01:18:27;;;;;;;25.30;12.80;;;;;;;9.04;64.63;100708.75;1779615;79;27254;-75
2021/03/24 01:20:53;;;;;;;21.70;11.43;;;;;;;9.03;64.60;100703.15;1779909;79;22173;-76
2021/03/24 01:23:18;;;;;;;25.45;12.60;;;;;;;8.98;64.74;100703.05;1778347;79;27109;-76
2021/03/24 01:25:44;;;;;;;24.75;11.83;;;;;;;8.94;65.12;100706.91;1776357;79;25335;-77
2021/03/24 01:28:18;;;;;;;24.32;12.23;;;;;;;8.98;64.77;100707.00;1783452;79;21244;-77
2021/03/24 01:30:43;;;;;;;24.10;12.70;;;;;;;8.93;64.83;100707.89;1778699;79;21184;-76
2021/03/24 01:33:09;;;;;;;22.95;12.33;;;;;;;8.92;64.99;100704.89;1752464;80;21788;-76
2021/03/24 01:35:36;;;;;;;25.00;12.30;;;;;;;8.95;64.91;100699.36;1778856;79;27003;-76
2021/03/24 01:38:03;;;;;;;22.17;11.75;;;;;;;8.93;64.96;100699.98;1775740;79;21224;-76
2021/03/24 01:40:39;;;;;;;24.20;12.00;;;;;;;8.93;65.01;100701.30;1779535;79;21210;-76
2021/03/24 01:43:10;;;;;;;25.13;11.33;;;;;;;8.88;65.12;100700.84;1779950;79;21229;-77
2021/03/24 01:46:15;;;;;;;25.27;12.07;;;;;;;8.88;65.09;100695.58;1778911;79;21688;-74
2021/03/24 01:48:41;;;;;;;26.82;12.18;;;;;;;8.86;65.21;100696.20;1777885;79;21168;-76
2021/03/24 01:51:07;;;;;;;25.30;11.80;;;;;;;8.66;65.93;100692.63;1781353;79;25578;-75
2021/03/24 01:53:33;;;;;;;23.47;10.63;;;;;;;8.53;66.64;100690.67;1779529;79;28279;-76
2021/03/24 01:55:59;;;;;;;25.33;11.70;;;;;;;8.43;67.52;100693.23;1781180;79;21631;-75
2021/03/24 01:58:25;;;;;;;27.40;12.00;;;;;;;8.52;67.35;100687.22;1776724;79;22385;-76
2021/03/24 02:00:51;;;;;;;22.32;11.28;;;;;;;8.63;67.11;100689.77;1781051;78;28064;-76
2021/03/24 02:03:22;;;;;;;22.60;11.35;;;;;;;8.60;67.08;100695.30;1777367;79;21221;-76
2021/03/24 02:05:48;;;;;;;22.00;11.70;;;;;;;8.79;66.72;100700.31;1776760;79;21217;-76
2021/03/24 02:08:22;;;;;;;19.95;10.93;;;;;;;8.75;66.65;100699.75;1782202;78;26886;-75
2021/03/24 02:10:55;;;;;;;22.60;11.48;;;;;;;8.77;66.53;100702.25;1778131;79;21413;-76
2021/03/24 02:13:34;;;;;;;21.12;10.85;;;;;;;8.68;66.82;100699.09;1776339;79;21182;-76
2021/03/24 02:16:07;;;;;;;21.33;10.50;;;;;;;8.63;66.93;100708.69;1779186;79;21176;-76
2021/03/24 02:18:33;;;;;;;22.70;10.18;;;;;;;8.59;67.00;100700.23;1781411;79;21227;-76
2021/03/24 02:21:11;;;;;;;22.67;10.60;;;;;;;8.61;66.92;100700.92;1785890;79;21225;-76
2021/03/24 02:23:42;;;;;;;20.00;10.35;;;;;;;8.56;67.18;100703.58;1777673;79;22091;-76
2021/03/24 02:26:45;;;;;;;22.75;10.75;;;;;;;8.57;67.12;100703.94;1780133;79;21740;-76
2021/03/24 02:29:14;;;;;;;19.98;10.13;;;;;;;8.39;67.69;100698.38;1778198;79;21169;-77
2021/03/24 02:31:40;;;;;;;22.35;10.68;;;;;;;8.42;67.74;100704.70;1777702;78;21224;-77
2021/03/24 02:34:10;;;;;;;18.48;9.93;;;;;;;8.47;67.66;100709.16;1777783;78;26734;-77
2021/03/24 02:36:36;;;;;;;18.62;9.43;;;;;;;8.42;67.78;100704.70;1778872;79;21330;-76
2021/03/24 02:39:05;;;;;;;23.32;10.43;;;;;;;8.53;67.31;100708.64;1778929;79;21506;-76
2021/03/24 02:41:31;;;;;;;20.35;9.90;;;;;;;8.53;67.32;100708.64;1779283;79;21210;-77
2021/03/24 02:43:57;;;;;;;24.77;10.98;;;;;;;8.50;67.32;100711.53;1776419;79;28347;-77
2021/03/24 02:46:22;;;;;;;19.27;9.90;;;;;;;8.49;67.19;100711.17;1775445;79;26819;-76
2021/03/24 02:48:48;;;;;;;21.27;10.38;;;;;;;8.50;67.19;100711.53;1774873;79;21838;-77
2021/03/24 02:51:18;;;;;;;23.92;10.70;;;;;;;8.47;67.32;100712.25;1780498;79;27162;-77
2021/03/24 02:53:44;;;;;;;22.37;9.88;;;;;;;8.45;67.26;100708.43;1780344;79;21200;-78
2021/03/24 02:56:11;;;;;;;25.00;9.93;;;;;;;8.38;67.33;100715.16;1755082;79;28279;-77
2021/03/24 02:58:37;;;;;;;21.25;9.70;;;;;;;8.39;67.37;100722.06;1778825;79;21235;-77
2021/03/24 03:01:13;;;;;;;18.07;8.98;;;;;;;8.29;67.63;100715.92;1777399;79;22022;-76
2021/03/24 03:03:43;;;;;;;23.15;9.70;;;;;;;8.29;67.53;100717.23;1776776;79;21221;-76
2021/03/24 03:06:11;;;;;;;20.50;8.95;;;;;;;8.35;67.17;100718.87;1779175;79;21193;-77
2021/03/24 03:08:41;;;;;;;20.68;9.08;;;;;;;8.31;67.24;100723.20;1779963;79;21176;-78
2021/03/24 03:11:24;;;;;;;15.58;7.95;;;;;;;8.23;67.39;100726.00;1780883;79;21172;-77
2021/03/24 03:13:58;;;;;;;16.25;7.72;;;;;;;8.29;67.10;100729.08;1783195;78;21920;-77
2021/03/24 03:16:44;;;;;;;16.87;7.92;;;;;;;8.33;66.85;100725.20;1777439;79;21210;-76
2021/03/24 03:19:23;;;;;;;15.55;7.62;;;;;;;8.32;66.95;100729.65;1778049;79;21193;-77
2021/03/24 03:21:52;;;;;;;17.32;8.00;;;;;;;8.38;66.71;100730.95;1778431;79;21177;-77
2021/03/24 03:24:19;;;;;;;17.35;7.90;;;;;;;8.42;66.46;100734.97;1777967;79;21185;-77
2021/03/24 03:26:44;;;;;;;15.08;7.30;;;;;;;8.26;66.84;100738.05;1780414;79;21736;-77
2021/03/24 03:29:16;;;;;;;15.60;7.83;;;;;;;8.32;66.48;100739.34;1777269;79;27024;-77
2021/03/24 03:31:45;;;;;;;15.53;7.87;;;;;;;8.20;66.91;100739.41;1753914;79;21148;-77
2021/03/24 03:34:12;;;;;;;16.30;7.70;;;;;;;8.20;66.89;100734.15;1768639;79;21150;-77
2021/03/24 03:36:40;;;;;;;10.43;5.30;;;;;;;8.29;66.46;100741.74;1783855;79;21241;-77
2021/03/24 03:39:10;;;;;;;16.75;7.60;;;;;;;8.18;66.91;100740.48;1783168;79;21548;-77
2021/03/24 03:41:36;;;;;;;17.37;7.42;;;;;;;8.07;67.37;100743.99;1781615;79;21547;-79
2021/03/24 03:44:03;;;;;;;17.77;7.40;;;;;;;8.10;67.12;100742.42;1780762;79;25289;-77
2021/03/24 03:46:31;;;;;;;17.47;7.60;;;;;;;8.10;67.02;100737.17;1732732;79;21491;-76
2021/03/24 03:48:57;;;;;;;15.83;7.58;;;;;;;8.00;67.46;100744.12;1781128;79;21180;-77
2021/03/24 03:51:43;;;;;;;17.60;7.97;;;;;;;8.00;67.40;100740.18;1778506;79;22362;-78
2021/03/24 03:54:19;;;;;;;19.40;8.03;;;;;;;7.97;67.53;100741.74;1780122;79;21190;-77
2021/03/24 03:57:11;;;;;;;18.40;8.53;;;;;;;7.93;67.64;100741.66;1779146;79;21177;-78
2021/03/24 03:59:58;;;;;;;15.53;7.75;;;;;;;7.88;67.76;100742.86;1775525;79;21208;-77
2021/03/24 04:02:47;;;;;;;16.15;7.87;;;;;;;7.82;68.02;100742.03;1775748;79;21204;-76
2021/03/24 04:05:18;;;;;;;18.73;8.00;;;;;;;7.60;68.84;100746.87;1776567;78;22103;-77
2021/03/24 04:08:10;;;;;;;18.73;8.30;;;;;;;7.62;68.75;100744.12;1779456;79;21252;-77
2021/03/24 04:10:38;;;;;;;16.80;8.20;;;;;;;7.55;69.15;100753.80;1783083;78;21239;-77
2021/03/24 04:13:04;;;;;;;18.40;7.87;;;;;;;7.48;69.40;100747.84;1782677;79;21610;-77
2021/03/24 04:15:30;;;;;;;19.42;8.40;;;;;;;7.53;69.29;100753.56;1762342;79;21200;-77
2021/03/24 04:18:20;;;;;;;19.25;7.95;;;;;;;7.57;69.32;100748.88;1784806;79;21219;-77
2021/03/24 04:20:46;;;;;;;15.98;8.23;;;;;;;7.60;69.27;100751.27;1776992;79;21185;-77
2021/03/24 04:23:15;;;;;;;18.03;8.37;;;;;;;7.54;69.30;100753.44;1777039;79;24733;-77
2021/03/24 04:25:51;;;;;;;18.82;8.20;;;;;;;7.63;69.15;100758.45;1777044;79;21180;-74
2021/03/24 04:28:20;;;;;;;14.60;8.13;;;;;;;7.59;69.36;100749.62;1763317;79;21186;-75
2021/03/24 04:30:50;;;;;;;16.73;8.08;;;;;;;7.50;69.61;100749.40;1770199;80;21165;-75
2021/03/24 04:33:16;;;;;;;16.32;8.00;;;;;;;7.53;69.78;100754.38;1780798;79;21209;-77
2021/03/24 04:35:42;;;;;;;16.97;7.83;;;;;;;7.46;70.25;100764.22;1781385;78;21693;-76
2021/03/24 04:38:19;;;;;;;19.20;9.00;;;;;;;7.45;70.23;100760.73;1762490;80;28354;-75
2021/03/24 04:40:53;;;;;;;18.30;8.60;;;;;;;7.59;70.08;100763.59;1776382;79;21261;-76
2021/03/24 04:43:23;;;;;;;17.35;9.00;;;;;;;7.57;70.02;100768.14;1778784;79;21207;-75
2021/03/24 04:46:03;;;;;;;18.67;9.18;;;;;;;7.70;69.48;100765.36;1776021;79;21224;-76
2021/03/24 04:48:40;;;;;;;15.98;8.60;;;;;;;7.64;69.53;100771.11;1780736;79;21102;-76
2021/03/24 04:51:10;;;;;;;18.92;8.50;;;;;;;7.60;69.69;100770.52;1779979;79;21618;-74
2021/03/24 04:53:41;;;;;;;18.27;8.83;;;;;;;7.41;70.49;100775.55;1777110;79;21172;-74
2021/03/24 04:56:06;;;;;;;16.17;8.58;;;;;;;7.47;70.32;100777.69;1782718;79;21865;-75
2021/03/24 04:58:40;;;;;;;14.45;8.53;;;;;;;7.57;69.98;100777.80;1777212;79;26987;-74
2021/03/24 05:01:31;;;;;;;16.40;8.78;;;;;;;7.59;69.82;100775.91;1787083;79;21176;-76
2021/03/24 05:04:06;;;;;;;18.55;8.95;;;;;;;7.63;69.74;100782.56;1782626;79;21653;-76
2021/03/24 05:06:38;;;;;;;16.07;8.80;;;;;;;7.69;69.46;100784.71;1760586;79;21573;-76
2021/03/24 05:09:07;;;;;;;16.23;9.33;;;;;;;7.78;69.22;100785.78;1780880;79;21222;-75
2021/03/24 05:11:41;;;;;;;17.23;9.25;;;;;;;7.81;68.93;100792.94;1778773;79;21524;-75
2021/03/24 05:14:40;;;;;;;17.45;8.95;;;;;;;7.76;69.29;100796.42;1776862;79;21192;-75
2021/03/24 05:17:16;;;;;;;19.20;9.58;;;;;;;7.74;69.26;100798.34;1776259;79;21216;-75
2021/03/24 05:19:43;;;;;;;19.90;9.40;;;;;;;7.69;69.51;100801.34;1780470;79;21126;-75
2021/03/24 05:22:26;;;;;;;17.37;9.43;;;;;;;7.78;69.18;100797.13;1777553;79;21200;-75
2021/03/24 05:25:09;;;;;;;20.10;9.98;;;;;;;7.65;69.48;100799.08;1776775;79;21198;-75
2021/03/24 05:28:04;;;;;;;16.82;8.65;;;;;;;7.51;70.12;100798.36;1774478;79;21246;-75
2021/03/24 05:30:32;;;;;;;15.70;9.48;;;;;;;7.39;70.65;100804.56;1783415;79;21199;-75
2021/03/24 05:33:17;;;;;;;21.35;10.08;;;;;;;7.40;70.70;100798.37;1778374;78;21594;-75
2021/03/24 05:36:18;;;;;;;18.80;10.15;;;;;;;7.22;71.21;100799.80;1777310;79;21823;-76
2021/03/24 05:38:48;;;;;;;17.90;9.88;;;;;;;7.24;71.39;100801.81;1777975;79;21225;-75
2021/03/24 05:41:34;;;;;;;20.85;9.75;;;;;;;7.25;71.39;100802.19;1779345;79;21222;-76
2021/03/24 05:44:23;;;;;;;19.52;9.85;;;;;;;7.14;71.78;100801.69;1781330;79;21143;-74
2021/03/24 05:47:33;;;;;;;20.05;10.10;;;;;;;7.05;72.15;100808.96;1781727;79;21174;-73
2021/03/24 05:50:31;;;;;;;19.05;10.32;;;;;;;7.00;72.30;100803.57;1778290;79;21216;-74
2021/03/24 05:53:28;;;;;;;17.12;9.75;;;;;;;7.15;71.88;100813.88;1775218;79;21205;-73
2021/03/24 05:55:59;;;;;;;18.82;10.05;;;;;;;7.16;72.21;100809.83;1778849;79;21253;-73
2021/03/24 05:58:47;;;;;;;18.87;9.98;;;;;;;7.40;71.59;100807.56;1757739;79;21602;-73
2021/03/24 06:01:31;;;;;;;23.00;10.50;;;;;;;7.59;70.93;100812.70;1777176;79;21164;-73
2021/03/24 06:04:43;;;;;;;20.60;11.00;;;;;;;7.55;70.84;100820.83;1776217;79;21674;-73
2021/03/24 06:07:49;;;;;;;18.85;10.08;;;;;;;7.60;70.61;100818.30;1777795;79;21130;-73
2021/03/24 06:10:32;;;;;;;21.47;10.47;;;;;;;7.67;70.33;100819.01;1776446;79;21563;-74
2021/03/24 06:13:19;;;;;;;22.22;10.60;;;;;;;7.61;70.53;100817.34;1775212;79;21190;-74
2021/03/24 06:16:22;;;;;;;18.25;9.93;;;;;;;7.65;70.40;100818.79;1778578;79;21188;-73
2021/03/24 06:19:11;;;;;;;18.70;10.08;;;;;;;7.70;70.15;100815.31;1698844;83;21689;-73
2021/03/24 06:21:58;;;;;;;24.02;11.05;;;;;;;7.85;69.86;100815.41;1782616;79;21668;-74
2021/03/24 06:24:35;;;;;;;20.62;11.00;;;;;;;7.90;69.66;100809.30;1778496;79;21239;-73
2021/03/24 06:27:08;;;;;;;;;;;;;;;7.96;69.40;100811.10;1776779;79;21245;-73
2021/03/24 06:30:00;;;;;;;23.75;10.88;;;;;;;8.00;69.15;100811.19;1778486;79;20322;-74
2021/03/24 06:32:53;;;;;;;22.05;11.15;;;;;;;7.96;69.13;100811.92;1781283;79;22371;-76
2021/03/24 06:35:36;;;;;;;22.85;11.60;;;;;;;7.92;69.52;100814.44;1778294;79;21273;-74
2021/03/24 06:38:51;;;;;;;27.10;11.40;;;;;;;7.96;69.58;100817.67;1780748;79;21623;-74
2021/03/24 06:41:52;;;;;;;23.90;11.50;;;;;;;8.14;71.34;100817.97;1778452;78;21225;-76
2021/03/24 06:44:50;;;;;;;29.00;12.35;;;;;;;8.15;69.25;100820.48;1781067;79;21207;-75
2021/03/24 06:47:48;;;;;;;22.25;11.40;;;;;;;7.90;69.34;100831.65;1779533;79;21153;-75
2021/03/24 06:51:10;;;;;;;22.82;11.48;;;;;;;7.95;69.00;100837.03;1774661;78;21232;-75
2021/03/24 06:54:00;;;;;;;20.52;10.75;;;;;;;8.02;68.87;100823.77;1781278;79;21192;-74
2021/03/24 06:57:15;;;;;;;21.50;11.25;;;;;;;8.05;68.42;100828.28;1778844;79;21152;-76
2021/03/24 07:00:07;;;;;;;20.55;11.55;;;;;;;7.94;68.32;100837.98;1774855;78;21669;-75
2021/03/24 07:03:03;;;;;;;21.52;12.05;;;;;;;8.02;68.39;100838.23;1778899;78;21224;-75
2021/03/24 07:05:56;;;;;;;21.12;11.25;;;;;;;7.96;68.54;100846.61;1776192;78;21192;-74
2021/03/24 07:09:11;;;;;;;21.62;10.65;;;;;;;8.09;68.29;100848.59;1778390;79;21183;-75
2021/03/24 07:11:54;;;;;;;22.90;11.53;;;;;;;8.15;67.96;100852.05;1782388;78;21203;-75
2021/03/24 07:14:53;;;;;;;21.27;10.80;;;;;;;8.27;67.67;100848.44;1778761;79;21209;-75
2021/03/24 07:17:37;;;;;;;23.35;11.48;;;;;;;8.34;67.41;100850.08;1767080;79;21583;-75
2021/03/24 07:20:28;;;;;;;21.57;11.83;;;;;;;8.22;67.37;100853.24;1780426;79;21238;-75
2021/03/24 07:23:31;;;;;;;22.52;11.73;;;;;;;8.29;67.31;100856.20;1775205;79;21236;-76
2021/03/24 07:26:24;;;;;;;21.87;12.18;;;;;;;8.42;66.96;100859.53;1775819;79;21255;-75
2021/03/24 07:29:40;;;;;;;26.25;13.58;;;;;;;8.40;66.87;100858.80;1775876;79;21221;-76
2021/03/24 07:32:19;;;;;;;28.23;13.58;;;;;;;8.77;66.42;100861.57;1776600;79;21431;-75
2021/03/24 07:35:05;;;;;;;25.27;12.80;;;;;;;8.78;66.03;100870.66;1773907;79;21245;-76
2021/03/24 07:38:27;;;;;;;27.20;13.28;;;;;;;8.86;65.72;100872.66;1779155;79;21168;-75
2021/03/24 07:41:34;;;;;;;25.90;13.18;;;;;;;8.81;65.98;100877.48;1774972;79;21173;-76
2021/03/24 07:44:29;;;;;;;31.25;14.30;;;;;;;8.98;65.40;100875.59;1780602;79;21181;-74
2021/03/24 07:47:13;;;;;;;31.48;14.78;;;;;;;8.75;65.93;100884.58;1722737;80;22004;-78
2021/03/24 07:50:19;;;;;;;32.88;14.05;;;;;;;8.79;66.10;100887.29;1728028;80;21240;-75
2021/03/24 07:53:10;;;;;;;28.75;13.58;;;;;;;8.69;66.18;100889.03;1744328;80;21180;-77
2021/03/24 07:55:47;;;;;;;27.77;12.93;;;;;;;8.89;65.93;100886.90;1744198;81;21238;-75
2021/03/24 07:58:35;;;;;;;33.00;14.03;;;;;;;9.04;65.28;100890.04;1740310;81;21219;-77
2021/03/24 08:01:12;;;;;;;27.85;13.68;;;;;;;8.82;65.81;100893.63;1742520;80;21303;-78
2021/03/24 08:04:22;;;;;;;24.47;13.18;;;;;;;8.62;65.87;100886.89;1742455;80;21251;-73
2021/03/24 08:07:28;;;;;;;24.45;13.18;;;;;;;8.78;65.64;100891.73;1743828;81;21217;-74
2021/03/24 08:10:45;;;;;;;27.13;13.30;;;;;;;8.96;65.34;100893.34;1739515;81;21253;-76
2021/03/24 08:13:35;;;;;;;28.55;13.43;;;;;;;9.00;64.94;100895.72;1744436;80;21191;-76
2021/03/24 08:16:52;;;;;;;23.22;12.90;;;;;;;9.16;64.68;100892.97;1740821;80;21658;-78
2021/03/24 08:19:50;;;;;;;25.75;12.70;;;;;;;9.16;64.25;100898.23;1737522;80;21243;-79
2021/03/24 08:23:00;;;;;;;24.00;12.45;;;;;;;9.18;64.24;100892.84;1743864;80;21271;-79
2021/03/24 08:25:46;;;;;;;24.65;12.28;;;;;;;9.22;63.78;100896.89;1743931;80;21196;-78
2021/03/24 08:28:55;;;;;;;25.15;12.75;;;;;;;9.09;63.78;100896.23;1745362;80;21199;-78
2021/03/24 08:31:54;;;;;;;24.43;12.18;;;;;;;8.88;64.12;100898.88;1742069;80;21774;-78
2021/03/24 08:34:51;;;;;;;20.60;11.75;;;;;;;9.04;64.25;100891.84;1721036;80;21225;-77
2021/03/24 08:37:38;;;;;;;;;;;;;;;9.13;63.81;100892.39;1747436;81;21223;-77
2021/03/24 08:40:21;;;;;;;17.55;8.65;;;;;;;9.11;63.83;100892.52;1746574;80;20324;-77
2021/03/24 08:43:01;;;;;;;24.92;12.28;;;;;;;9.19;63.86;100894.52;1747838;80;21264;-79
2021/03/24 08:45:34;;;;;;;25.43;13.48;;;;;;;9.44;63.72;100888.49;1745059;81;21760;-74
2021/03/24 08:48:05;;;;;;;20.30;12.23;;;;;;;9.49;63.23;100888.93;1739750;80;21232;-75
2021/03/24 08:50:39;;;;;;;23.15;12.28;;;;;;;9.38;62.41;100894.29;1773778;78;21185;-75
2021/03/24 08:53:33;;;;;;;22.07;12.10;;;;;;;9.50;62.40;100889.30;1778106;79;21276;-76
2021/03/24 08:56:21;;;;;;;32.73;12.85;;;;;;;9.52;62.41;100890.84;1771326;78;21253;-77
2021/03/24 08:58:58;;;;;;;24.23;11.75;;;;;;;9.47;62.47;100889.55;1776771;78;21690;-76
2021/03/24 09:01:50;;;;;;;23.35;12.20;;;;;;;9.68;62.19;100884.26;1773152;79;21242;-76
2021/03/24 09:04:53;;;;;;;19.98;11.53;;;;;;;9.45;62.32;100879.14;1730999;79;21161;-75
2021/03/24 09:07:24;;;;;;;21.35;11.65;;;;;;;9.48;61.95;100876.24;1775556;78;21250;-76
2021/03/24 09:10:19;;;;;;;20.48;11.30;;;;;;;9.48;62.16;100870.97;1776016;78;21635;-77
2021/03/24 09:13:12;;;;;;;20.08;10.93;;;;;;;9.41;61.93;100874.26;1769820;79;22422;-74
2021/03/24 09:16:22;;;;;;;20.08;10.68;;;;;;;9.33;61.91;100879.69;1714950;82;21248;-75
2021/03/24 09:19:11;;;;;;;21.97;11.10;;;;;;;9.53;61.67;100882.44;1718624;82;22361;-75
2021/03/24 09:21:54;;;;;;;23.98;11.40;;;;;;;9.49;61.84;100879.70;1766127;79;21244;-76
2021/03/24 09:24:47;;;;;;;22.58;12.00;;;;;;;9.63;61.63;100883.33;1774312;79;21204;-75
2021/03/24 09:27:46;;;;;;;24.18;10.90;;;;;;;9.70;61.58;100880.50;1770899;79;21388;-76
2021/03/24 09:34:03;;;;;;;16.95;9.38;;;;;;;9.72;60.60;100878.22;1772819;78;21556;-77
2021/03/24 09:36:47;;;;;;;16.23;8.93;;;;;;;9.67;60.69;100876.80;1780493;78;21203;-75
2021/03/24 09:39:23;;;;;;;16.48;8.98;;;;;;;9.68;60.50;100879.80;1764777;78;21224;-75
2021/03/24 09:41:57;;;;;;;18.92;10.15;;;;;;;9.69;60.34;100884.13;1772208;78;21499;-80
2021/03/24 09:44:43;;;;;;;17.60;10.10;;;;;;;9.77;60.39;100883.46;1769377;78;21216;-74
2021/03/24 09:47:32;;;;;;;18.98;10.18;;;;;;;9.92;60.01;100874.68;1777615;78;21197;-76
2021/03/24 09:50:09;;;;;;;21.35;11.93;;;;;;;9.89;59.64;100873.63;1768873;78;21701;-76
2021/03/24 09:53:14;;;;;;;28.73;12.70;;;;;;;9.92;59.94;100870.72;1774588;78;21724;-76
2021/03/24 09:55:44;;;;;;;24.32;12.98;;;;;;;9.87;59.66;100871.62;1764688;78;21465;-75
2021/03/24 09:58:27;;;;;;;22.95;12.58;;;;;;;9.83;59.80;100870.20;1777992;78;22377;-75
2021/03/24 10:01:26;;;;;;;23.70;11.28;;;;;;;9.95;59.94;100873.09;1774327;78;21194;-75
2021/03/24 10:04:00;;;;;;;17.75;11.10;;;;;;;9.80;59.88;100871.79;1778490;78;21199;-75
2021/03/24 10:06:34;;;;;;;22.85;11.95;;;;;;;9.91;59.67;100873.49;1768548;78;21176;-76
2021/03/24 10:09:08;;;;;;;24.98;12.88;;;;;;;9.79;59.83;100866.16;1770028;78;22398;-79
2021/03/24 10:11:42;;;;;;;28.07;15.35;;;;;;;9.92;59.83;100869.90;1764579;78;21172;-78
2021/03/24 10:14:20;;;;;;;27.65;16.02;;;;;;;10.15;59.17;100866.56;1781790;78;21192;-78
2021/03/24 10:16:46;;;;;;;;;;;;;;;10.22;59.20;100862.39;1771919;78;21158;-76
2021/03/24 10:19:24;;;;;;;29.47;15.03;;;;;;;10.29;58.80;100861.38;1778560;78;20305;-74
2021/03/24 10:21:57;;;;;;;24.87;15.48;;;;;;;10.36;58.32;100856.77;1785880;78;21200;-76
2021/03/24 10:24:29;;;;;;;28.02;16.07;;;;;;;10.34;58.62;100853.41;1773805;78;21172;-74
2021/03/24 10:27:05;;;;;;;27.75;16.93;;;;;;;10.34;58.79;100857.37;1773535;77;21610;-76
2021/03/24 10:29:48;;;;;;;33.80;16.75;;;;;;;10.18;58.53;100857.05;1767121;78;21132;-75
2021/03/24 10:32:35;;;;;;;28.17;16.17;;;;;;;10.21;58.57;100859.42;1778040;77;21218;-75
2021/03/24 10:35:41;;;;;;;27.22;16.15;;;;;;;10.09;58.66;100860.50;1787013;78;21189;-76
2021/03/24 10:38:22;;;;;;;25.62;15.60;;;;;;;9.96;59.12;100853.66;1779916;78;21664;-75
2021/03/24 10:41:10;;;;;;;30.00;16.85;;;;;;;10.01;58.90;100855.41;1780582;78;21138;-77
2021/03/24 10:43:50;;;;;;;27.35;15.85;;;;;;;10.02;58.88;100850.48;1790502;78;21221;-76
2021/03/24 10:46:27;;;;;;;27.42;15.35;;;;;;;10.17;58.62;100840.36;1786771;78;21257;-76
2021/03/24 10:48:58;;;;;;;24.65;15.23;;;;;;;10.04;58.56;100848.54;1781691;78;21175;-75
2021/03/24 10:51:44;;;;;;;28.30;15.28;;;;;;;9.92;58.70;100849.62;1760585;78;21216;-75
2021/03/24 10:54:18;;;;;;;26.45;14.15;;;;;;;9.89;59.01;100847.25;1771093;78;21633;-74
2021/03/24 10:56:55;;;;;;;28.40;15.83;;;;;;;10.08;58.69;100850.91;1777622;78;21314;-75
2021/03/24 10:59:35;;;;;;;28.35;15.95;;;;;;;10.12;58.75;100843.08;1784301;78;21160;-76
2021/03/24 11:02:13;;;;;;;25.55;15.18;;;;;;;10.17;58.42;100840.86;1788673;78;21773;-74
2021/03/24 11:04:59;;;;;;;;;;;;;;;10.20;58.61;100841.91;1793802;78;21156;-75
2021/03/24 11:07:49;;;;;;;32.10;15.80;;;;;;;10.26;58.10;100841.85;1774898;78;20309;-75
2021/03/24 11:10:46;;;;;;;30.37;16.45;;;;;;;10.08;58.58;100832.44;1792014;78;21208;-74
2021/03/24 11:13:23;;;;;;;30.15;16.37;;;;;;;10.14;58.48;100829.25;1783418;78;21217;-74
2021/03/24 11:16:16;;;;;;;29.90;15.55;;;;;;;10.14;58.55;100826.61;1795568;78;21402;-76
2021/03/24 11:18:50;;;;;;;24.55;13.68;;;;;;;10.23;58.56;100829.25;1734683;78;21248;-77
2021/03/24 11:21:39;;;;;;;22.42;11.65;;;;;;;10.30;58.46;100832.20;1786325;78;21624;-74
2021/03/24 11:24:24;;;;;;;18.50;10.40;;;;;;;10.33;57.80;100831.11;1786727;78;21579;-75
2021/03/24 11:27:06;;;;;;;19.95;9.83;;;;;;;10.46;57.20;100830.36;1781433;78;21195;-74
2021/03/24 11:29:35;;;;;;;16.30;9.13;;;;;;;10.35;57.43;100826.05;1785951;78;21145;-75
2021/03/24 11:32:25;;;;;;;18.40;9.25;;;;;;;10.53;57.16;100827.98;1779848;78;21731;-74
2021/03/24 11:34:55;;;;;;;15.68;8.38;;;;;;;10.55;56.95;100823.39;1749737;79;21239;-74
2021/03/24 11:37:38;;;;;;;20.27;9.60;;;;;;;10.65;56.60;100829.52;1753316;79;21223;-73
2021/03/24 11:40:32;;;;;;;25.62;10.00;;;;;;;10.67;56.69;100830.70;1753111;79;21175;-74
2021/03/24 11:43:06;;;;;;;19.25;10.20;;;;;;;10.47;57.08;100832.50;1752218;79;21202;-74
2021/03/24 11:45:32;;;;;;;18.55;9.45;;;;;;;10.55;57.01;100830.84;1750529;79;21197;-75
2021/03/24 11:48:39;;;;;;;18.02;10.20;;;;;;;10.51;57.03;100829.95;1752136;79;21723;-74
2021/03/24 11:51:12;;;;;;;22.42;10.35;;;;;;;10.54;56.82;100833.63;1718255;79;21198;-71
2021/03/24 11:53:49;;;;;;;21.27;10.28;;;;;;;10.39;57.72;100831.41;1756140;79;21171;-73
2021/03/24 11:56:54;;;;;;;;;;;;;;;10.05;58.94;100838.34;1746618;79;21719;-77
2021/03/24 11:59:53;;;;;;;23.57;12.07;;;;;;;9.93;59.43;100831.51;1750471;79;20491;-75
2021/03/24 12:02:23;;;;;;;22.20;12.37;;;;;;;9.71;60.00;100828.61;1749254;79;21227;-72
2021/03/24 12:05:09;;;;;;;24.15;12.53;;;;;;;9.76;60.14;100825.56;1750191;79;21734;-75
2021/03/24 12:08:01;;;;;;;20.45;11.40;;;;;;;10.00;59.77;100825.20;1762971;79;21170;-74
2021/03/24 12:10:32;;;;;;;22.75;12.03;;;;;;;9.96;60.36;100824.64;1750267;79;21280;-75
2021/03/24 12:13:12;;;;;;;26.80;12.03;;;;;;;9.80;61.29;100826.95;1756915;79;21217;-74
2021/03/24 12:15:39;;;;;;;23.60;11.48;;;;;;;9.68;62.01;100828.38;1749643;79;21193;-74
2021/03/24 12:18:16;;;;;;;25.35;12.13;;;;;;;9.75;61.88;100823.89;1748476;80;21657;-75
2021/03/24 12:21:00;;;;;;;22.13;12.43;;;;;;;9.65;62.07;100824.69;1758126;79;21174;-75